sensor_id;sensor_type;location;lat;lon;timestamp;P1;durP1;ratioP1;P2;durP2;ratioP2
6288;SDS011;3177;49.880;8.836;2023-08-24T00:01:26;4.15;;;3.40;;
6288;SDS011;3177;49.880;8.836;2023-08-24T00:03:53;6.25;;;4.63;;
6288;SDS011;3177;49.880;8.836;2023-08-24T00:06:20;6.53;;;4.35;;
6288;SDS011;3177;49.880;8.836;2023-08-24T00:08:47;5.18;;;4.40;;
6288;SDS011;3177;49.880;8.836;2023-08-24T00:11:14;6.28;;;4.38;;
6288;SDS011;3177;49.880;8.836;2023-08-24T00:13:41;11.40;;;5.18;;
6288;SDS011;3177;49.880;8.836;2023-08-24T00:16:13;6.13;;;4.53;;
6288;SDS011;3177;49.880;8.836;2023-08-24T00:18:42;6.18;;;4.30;;
6288;SDS011;3177;49.880;8.836;2023-08-24T00:21:10;5.55;;;4.70;;
6288;SDS011;3177;49.880;8.836;2023-08-24T00:23:37;5.55;;;4.18;;
6288;SDS011;3177;49.880;8.836;2023-08-24T00:26:04;5.63;;;4.90;;
6288;SDS011;3177;49.880;8.836;2023-08-24T00:28:31;5.00;;;4.50;;
6288;SDS011;3177;49.880;8.836;2023-08-24T00:30:58;5.63;;;4.88;;
6288;SDS011;3177;49.880;8.836;2023-08-24T00:33:26;5.38;;;4.88;;
6288;SDS011;3177;49.880;8.836;2023-08-24T00:35:54;8.35;;;5.18;;
6288;SDS011;3177;49.880;8.836;2023-08-24T00:38:25;5.05;;;4.60;;
6288;SDS011;3177;49.880;8.836;2023-08-24T00:40:52;5.95;;;4.90;;
6288;SDS011;3177;49.880;8.836;2023-08-24T00:43:19;4.47;;;4.18;;
6288;SDS011;3177;49.880;8.836;2023-08-24T00:45:49;5.32;;;4.82;;
6288;SDS011;3177;49.880;8.836;2023-08-24T00:48:16;5.25;;;4.85;;
6288;SDS011;3177;49.880;8.836;2023-08-24T00:50:43;5.70;;;5.20;;
6288;SDS011;3177;49.880;8.836;2023-08-24T00:53:12;5.90;;;4.85;;
6288;SDS011;3177;49.880;8.836;2023-08-24T00:55:39;5.05;;;4.55;;
6288;SDS011;3177;49.880;8.836;2023-08-24T00:58:06;7.78;;;5.25;;
6288;SDS011;3177;49.880;8.836;2023-08-24T01:00:35;5.30;;;4.90;;
6288;SDS011;3177;49.880;8.836;2023-08-24T01:03:02;6.07;;;5.20;;
6288;SDS011;3177;49.880;8.836;2023-08-24T01:05:29;9.32;;;4.97;;
6288;SDS011;3177;49.880;8.836;2023-08-24T01:07:56;5.75;;;5.22;;
6288;SDS011;3177;49.880;8.836;2023-08-24T01:10:25;7.20;;;5.28;;
6288;SDS011;3177;49.880;8.836;2023-08-24T01:12:59;8.00;;;5.45;;
6288;SDS011;3177;49.880;8.836;2023-08-24T01:15:29;5.85;;;5.25;;
6288;SDS011;3177;49.880;8.836;2023-08-24T01:17:59;5.97;;;5.05;;
6288;SDS011;3177;49.880;8.836;2023-08-24T01:20:28;6.22;;;5.63;;
6288;SDS011;3177;49.880;8.836;2023-08-24T01:22:55;6.18;;;5.60;;
6288;SDS011;3177;49.880;8.836;2023-08-24T01:25:29;5.65;;;5.07;;
6288;SDS011;3177;49.880;8.836;2023-08-24T01:28:00;5.90;;;5.28;;
6288;SDS011;3177;49.880;8.836;2023-08-24T01:30:28;5.88;;;4.95;;
6288;SDS011;3177;49.880;8.836;2023-08-24T01:32:55;7.10;;;4.63;;
6288;SDS011;3177;49.880;8.836;2023-08-24T01:35:23;6.15;;;5.05;;
6288;SDS011;3177;49.880;8.836;2023-08-24T01:37:50;5.05;;;4.63;;
6288;SDS011;3177;49.880;8.836;2023-08-24T01:40:17;4.88;;;4.47;;
6288;SDS011;3177;49.880;8.836;2023-08-24T01:42:48;5.43;;;4.80;;
6288;SDS011;3177;49.880;8.836;2023-08-24T01:45:17;5.50;;;5.00;;
6288;SDS011;3177;49.880;8.836;2023-08-24T01:47:45;5.90;;;4.78;;
6288;SDS011;3177;49.880;8.836;2023-08-24T01:50:12;8.15;;;4.57;;
6288;SDS011;3177;49.880;8.836;2023-08-24T01:52:40;7.72;;;4.85;;
6288;SDS011;3177;49.880;8.836;2023-08-24T01:55:08;6.47;;;4.68;;
6288;SDS011;3177;49.880;8.836;2023-08-24T01:57:35;6.93;;;4.90;;
6288;SDS011;3177;49.880;8.836;2023-08-24T02:00:02;5.47;;;4.93;;
6288;SDS011;3177;49.880;8.836;2023-08-24T02:02:34;6.47;;;5.32;;
6288;SDS011;3177;49.880;8.836;2023-08-24T02:05:01;9.45;;;5.80;;
6288;SDS011;3177;49.880;8.836;2023-08-24T02:07:28;7.00;;;5.82;;
6288;SDS011;3177;49.880;8.836;2023-08-24T02:09:55;6.25;;;5.70;;
6288;SDS011;3177;49.880;8.836;2023-08-24T02:12:22;6.47;;;5.85;;
6288;SDS011;3177;49.880;8.836;2023-08-24T02:14:49;6.38;;;5.78;;
6288;SDS011;3177;49.880;8.836;2023-08-24T02:17:16;8.13;;;6.20;;
6288;SDS011;3177;49.880;8.836;2023-08-24T02:19:45;7.47;;;5.78;;
6288;SDS011;3177;49.880;8.836;2023-08-24T02:22:12;6.53;;;5.88;;
6288;SDS011;3177;49.880;8.836;2023-08-24T02:24:39;7.28;;;5.97;;
6288;SDS011;3177;49.880;8.836;2023-08-24T02:27:06;6.90;;;6.20;;
6288;SDS011;3177;49.880;8.836;2023-08-24T02:29:33;7.05;;;6.13;;
6288;SDS011;3177;49.880;8.836;2023-08-24T02:32:01;8.68;;;6.50;;
6288;SDS011;3177;49.880;8.836;2023-08-24T02:34:28;8.18;;;5.65;;
6288;SDS011;3177;49.880;8.836;2023-08-24T02:36:56;10.85;;;6.15;;
6288;SDS011;3177;49.880;8.836;2023-08-24T02:39:24;8.10;;;5.60;;
6288;SDS011;3177;49.880;8.836;2023-08-24T02:41:51;6.63;;;6.03;;
6288;SDS011;3177;49.880;8.836;2023-08-24T02:44:18;8.13;;;6.10;;
6288;SDS011;3177;49.880;8.836;2023-08-24T02:46:45;6.32;;;5.78;;
6288;SDS011;3177;49.880;8.836;2023-08-24T02:49:12;7.20;;;6.53;;
6288;SDS011;3177;49.880;8.836;2023-08-24T02:51:39;7.90;;;7.10;;
6288;SDS011;3177;49.880;8.836;2023-08-24T02:54:08;7.72;;;7.00;;
6288;SDS011;3177;49.880;8.836;2023-08-24T02:56:35;7.93;;;7.10;;
6288;SDS011;3177;49.880;8.836;2023-08-24T02:59:02;7.45;;;6.75;;
6288;SDS011;3177;49.880;8.836;2023-08-24T03:01:29;10.70;;;7.65;;
6288;SDS011;3177;49.880;8.836;2023-08-24T03:03:56;8.52;;;7.72;;
6288;SDS011;3177;49.880;8.836;2023-08-24T03:06:23;7.82;;;7.05;;
6288;SDS011;3177;49.880;8.836;2023-08-24T03:08:50;6.75;;;6.15;;
6288;SDS011;3177;49.880;8.836;2023-08-24T03:11:19;7.07;;;6.38;;
6288;SDS011;3177;49.880;8.836;2023-08-24T03:13:46;9.68;;;6.88;;
6288;SDS011;3177;49.880;8.836;2023-08-24T03:16:13;9.27;;;6.70;;
6288;SDS011;3177;49.880;8.836;2023-08-24T03:18:40;7.25;;;6.63;;
6288;SDS011;3177;49.880;8.836;2023-08-24T03:21:07;8.27;;;7.15;;
6288;SDS011;3177;49.880;8.836;2023-08-24T03:23:35;8.63;;;7.40;;
6288;SDS011;3177;49.880;8.836;2023-08-24T03:26:02;7.70;;;7.00;;
6288;SDS011;3177;49.880;8.836;2023-08-24T03:28:30;8.68;;;6.88;;
6288;SDS011;3177;49.880;8.836;2023-08-24T03:30:57;9.35;;;7.57;;
6288;SDS011;3177;49.880;8.836;2023-08-24T03:33:24;7.45;;;6.70;;
6288;SDS011;3177;49.880;8.836;2023-08-24T03:35:53;8.63;;;7.30;;
6288;SDS011;3177;49.880;8.836;2023-08-24T03:38:20;9.25;;;8.25;;
6288;SDS011;3177;49.880;8.836;2023-08-24T03:40:47;9.23;;;7.57;;
6288;SDS011;3177;49.880;8.836;2023-08-24T03:43:14;8.13;;;7.22;;
6288;SDS011;3177;49.880;8.836;2023-08-24T03:45:42;8.07;;;6.72;;
6288;SDS011;3177;49.880;8.836;2023-08-24T03:48:09;9.48;;;6.75;;
6288;SDS011;3177;49.880;8.836;2023-08-24T03:50:36;6.93;;;6.32;;
6288;SDS011;3177;49.880;8.836;2023-08-24T03:53:03;8.70;;;7.40;;
6288;SDS011;3177;49.880;8.836;2023-08-24T03:55:30;7.90;;;7.20;;
6288;SDS011;3177;49.880;8.836;2023-08-24T03:57:58;9.85;;;6.93;;
6288;SDS011;3177;49.880;8.836;2023-08-24T04:00:25;8.25;;;7.40;;
6288;SDS011;3177;49.880;8.836;2023-08-24T04:02:53;8.00;;;7.30;;
6288;SDS011;3177;49.880;8.836;2023-08-24T04:05:20;10.43;;;7.43;;
6288;SDS011;3177;49.880;8.836;2023-08-24T04:07:47;9.32;;;7.88;;
6288;SDS011;3177;49.880;8.836;2023-08-24T04:10:14;8.75;;;7.30;;
6288;SDS011;3177;49.880;8.836;2023-08-24T04:12:41;8.32;;;7.53;;
6288;SDS011;3177;49.880;8.836;2023-08-24T04:15:09;8.83;;;7.93;;
6288;SDS011;3177;49.880;8.836;2023-08-24T04:17:36;8.17;;;6.93;;
6288;SDS011;3177;49.880;8.836;2023-08-24T04:20:05;9.13;;;8.23;;
6288;SDS011;3177;49.880;8.836;2023-08-24T04:22:33;9.45;;;8.20;;
6288;SDS011;3177;49.880;8.836;2023-08-24T04:25:00;13.18;;;9.65;;
6288;SDS011;3177;49.880;8.836;2023-08-24T04:27:27;9.60;;;8.60;;
6288;SDS011;3177;49.880;8.836;2023-08-24T04:29:55;10.40;;;8.98;;
6288;SDS011;3177;49.880;8.836;2023-08-24T04:32:22;12.20;;;9.25;;
6288;SDS011;3177;49.880;8.836;2023-08-24T04:34:49;9.75;;;8.75;;
6288;SDS011;3177;49.880;8.836;2023-08-24T04:37:18;8.95;;;8.05;;
6288;SDS011;3177;49.880;8.836;2023-08-24T04:39:45;10.32;;;9.13;;
6288;SDS011;3177;49.880;8.836;2023-08-24T04:42:12;10.10;;;9.07;;
6288;SDS011;3177;49.880;8.836;2023-08-24T04:44:40;8.93;;;8.15;;
6288;SDS011;3177;49.880;8.836;2023-08-24T04:47:07;9.73;;;8.65;;
6288;SDS011;3177;49.880;8.836;2023-08-24T04:49:35;9.57;;;8.18;;
6288;SDS011;3177;49.880;8.836;2023-08-24T04:52:02;10.98;;;9.32;;
6288;SDS011;3177;49.880;8.836;2023-08-24T04:54:32;10.38;;;7.93;;
6288;SDS011;3177;49.880;8.836;2023-08-24T04:56:59;9.13;;;8.23;;
6288;SDS011;3177;49.880;8.836;2023-08-24T04:59:26;9.45;;;7.80;;
6288;SDS011;3177;49.880;8.836;2023-08-24T05:01:53;8.52;;;7.43;;
6288;SDS011;3177;49.880;8.836;2023-08-24T05:04:21;10.38;;;7.95;;
6288;SDS011;3177;49.880;8.836;2023-08-24T05:06:48;8.95;;;8.15;;
6288;SDS011;3177;49.880;8.836;2023-08-24T05:09:15;9.85;;;8.95;;
6288;SDS011;3177;49.880;8.836;2023-08-24T05:11:43;10.23;;;8.23;;
6288;SDS011;3177;49.880;8.836;2023-08-24T05:14:11;8.55;;;7.75;;
6288;SDS011;3177;49.880;8.836;2023-08-24T05:16:39;10.38;;;9.25;;
6288;SDS011;3177;49.880;8.836;2023-08-24T05:19:06;11.63;;;9.18;;
6288;SDS011;3177;49.880;8.836;2023-08-24T05:21:33;13.77;;;8.52;;
6288;SDS011;3177;49.880;8.836;2023-08-24T05:24:00;11.32;;;9.20;;
6288;SDS011;3177;49.880;8.836;2023-08-24T05:26:29;9.18;;;8.27;;
6288;SDS011;3177;49.880;8.836;2023-08-24T05:28:57;10.45;;;9.27;;
6288;SDS011;3177;49.880;8.836;2023-08-24T05:31:24;9.13;;;8.23;;
6288;SDS011;3177;49.880;8.836;2023-08-24T05:33:51;9.93;;;8.90;;
6288;SDS011;3177;49.880;8.836;2023-08-24T05:36:18;10.30;;;9.15;;
6288;SDS011;3177;49.880;8.836;2023-08-24T05:38:45;11.82;;;8.50;;
6288;SDS011;3177;49.880;8.836;2023-08-24T05:41:12;8.77;;;8.02;;
6288;SDS011;3177;49.880;8.836;2023-08-24T05:43:40;11.52;;;8.50;;
6288;SDS011;3177;49.880;8.836;2023-08-24T05:46:08;9.82;;;8.82;;
6288;SDS011;3177;49.880;8.836;2023-08-24T05:48:35;8.57;;;7.78;;
6288;SDS011;3177;49.880;8.836;2023-08-24T05:51:02;8.83;;;8.00;;
6288;SDS011;3177;49.880;8.836;2023-08-24T05:53:31;10.48;;;8.30;;
6288;SDS011;3177;49.880;8.836;2023-08-24T05:55:58;9.77;;;8.80;;
6288;SDS011;3177;49.880;8.836;2023-08-24T05:58:25;11.52;;;8.55;;
6288;SDS011;3177;49.880;8.836;2023-08-24T06:00:56;9.88;;;8.88;;
6288;SDS011;3177;49.880;8.836;2023-08-24T06:03:24;11.02;;;8.57;;
6288;SDS011;3177;49.880;8.836;2023-08-24T06:05:51;11.15;;;9.40;;
6288;SDS011;3177;49.880;8.836;2023-08-24T06:08:18;10.70;;;9.18;;
6288;SDS011;3177;49.880;8.836;2023-08-24T06:10:46;13.73;;;9.35;;
6288;SDS011;3177;49.880;8.836;2023-08-24T06:13:13;9.95;;;9.05;;
6288;SDS011;3177;49.880;8.836;2023-08-24T06:15:40;10.73;;;9.38;;
6288;SDS011;3177;49.880;8.836;2023-08-24T06:18:07;10.82;;;9.00;;
6288;SDS011;3177;49.880;8.836;2023-08-24T06:20:35;9.90;;;8.90;;
6288;SDS011;3177;49.880;8.836;2023-08-24T06:23:02;9.85;;;8.82;;
6288;SDS011;3177;49.880;8.836;2023-08-24T06:25:29;9.20;;;8.30;;
6288;SDS011;3177;49.880;8.836;2023-08-24T06:27:57;9.65;;;8.48;;
6288;SDS011;3177;49.880;8.836;2023-08-24T06:30:25;10.43;;;9.38;;
6288;SDS011;3177;49.880;8.836;2023-08-24T06:32:52;9.48;;;8.50;;
6288;SDS011;3177;49.880;8.836;2023-08-24T06:35:19;9.40;;;8.55;;
6288;SDS011;3177;49.880;8.836;2023-08-24T06:37:47;10.05;;;8.52;;
6288;SDS011;3177;49.880;8.836;2023-08-24T06:40:14;10.82;;;8.30;;
6288;SDS011;3177;49.880;8.836;2023-08-24T06:42:42;9.27;;;8.30;;
6288;SDS011;3177;49.880;8.836;2023-08-24T06:45:09;9.30;;;8.40;;
6288;SDS011;3177;49.880;8.836;2023-08-24T06:47:36;10.63;;;8.68;;
6288;SDS011;3177;49.880;8.836;2023-08-24T06:50:04;11.88;;;8.68;;
6288;SDS011;3177;49.880;8.836;2023-08-24T06:52:31;9.40;;;8.45;;
6288;SDS011;3177;49.880;8.836;2023-08-24T06:55:00;8.43;;;7.63;;
6288;SDS011;3177;49.880;8.836;2023-08-24T06:57:27;8.60;;;7.70;;
6288;SDS011;3177;49.880;8.836;2023-08-24T06:59:54;9.63;;;7.85;;
6288;SDS011;3177;49.880;8.836;2023-08-24T07:02:21;9.40;;;7.47;;
6288;SDS011;3177;49.880;8.836;2023-08-24T07:04:48;7.35;;;6.65;;
6288;SDS011;3177;49.880;8.836;2023-08-24T07:07:15;7.78;;;7.07;;
6288;SDS011;3177;49.880;8.836;2023-08-24T07:09:42;8.07;;;6.43;;
6288;SDS011;3177;49.880;8.836;2023-08-24T07:12:11;9.77;;;6.47;;
6288;SDS011;3177;49.880;8.836;2023-08-24T07:14:38;8.27;;;7.47;;
6288;SDS011;3177;49.880;8.836;2023-08-24T07:17:05;8.68;;;6.80;;
6288;SDS011;3177;49.880;8.836;2023-08-24T07:19:33;9.82;;;7.03;;
6288;SDS011;3177;49.880;8.836;2023-08-24T07:22:00;8.77;;;6.97;;
6288;SDS011;3177;49.880;8.836;2023-08-24T07:24:27;7.38;;;6.65;;
6288;SDS011;3177;49.880;8.836;2023-08-24T07:26:54;8.30;;;7.07;;
6288;SDS011;3177;49.880;8.836;2023-08-24T07:29:23;9.20;;;6.88;;
6288;SDS011;3177;49.880;8.836;2023-08-24T07:31:50;7.75;;;7.07;;
6288;SDS011;3177;49.880;8.836;2023-08-24T07:34:17;7.93;;;7.22;;
6288;SDS011;3177;49.880;8.836;2023-08-24T07:36:44;8.65;;;7.40;;
6288;SDS011;3177;49.880;8.836;2023-08-24T07:39:13;8.32;;;7.57;;
6288;SDS011;3177;49.880;8.836;2023-08-24T07:41:40;10.25;;;7.18;;
6288;SDS011;3177;49.880;8.836;2023-08-24T07:44:07;6.82;;;6.15;;
6288;SDS011;3177;49.880;8.836;2023-08-24T07:46:36;7.65;;;6.25;;
6288;SDS011;3177;49.880;8.836;2023-08-24T07:49:03;9.55;;;6.53;;
6288;SDS011;3177;49.880;8.836;2023-08-24T07:51:32;7.13;;;6.43;;
6288;SDS011;3177;49.880;8.836;2023-08-24T07:53:59;7.43;;;6.28;;
6288;SDS011;3177;49.880;8.836;2023-08-24T07:56:26;8.15;;;6.82;;
6288;SDS011;3177;49.880;8.836;2023-08-24T07:58:53;7.80;;;6.20;;
6288;SDS011;3177;49.880;8.836;2023-08-24T08:01:20;8.63;;;6.00;;
6288;SDS011;3177;49.880;8.836;2023-08-24T08:03:49;6.20;;;5.60;;
6288;SDS011;3177;49.880;8.836;2023-08-24T08:06:16;6.10;;;5.50;;
6288;SDS011;3177;49.880;8.836;2023-08-24T08:08:43;7.45;;;5.90;;
6288;SDS011;3177;49.880;8.836;2023-08-24T08:11:11;7.65;;;5.93;;
6288;SDS011;3177;49.880;8.836;2023-08-24T08:13:38;6.57;;;5.88;;
6288;SDS011;3177;49.880;8.836;2023-08-24T08:16:06;7.95;;;5.95;;
6288;SDS011;3177;49.880;8.836;2023-08-24T08:18:33;6.72;;;5.95;;
6288;SDS011;3177;49.880;8.836;2023-08-24T08:21:03;7.50;;;6.63;;
6288;SDS011;3177;49.880;8.836;2023-08-24T08:23:35;6.78;;;6.10;;
6288;SDS011;3177;49.880;8.836;2023-08-24T08:26:02;7.00;;;6.10;;
6288;SDS011;3177;49.880;8.836;2023-08-24T08:28:29;7.57;;;5.68;;
6288;SDS011;3177;49.880;8.836;2023-08-24T08:44:57;5.85;;;4.63;;
6288;SDS011;3177;49.880;8.836;2023-08-24T08:47:25;5.07;;;4.18;;
6288;SDS011;3177;49.880;8.836;2023-08-24T08:49:52;4.72;;;4.32;;
6288;SDS011;3177;49.880;8.836;2023-08-24T08:52:19;5.50;;;4.95;;
6288;SDS011;3177;49.880;8.836;2023-08-24T08:54:46;5.35;;;4.95;;
6288;SDS011;3177;49.880;8.836;2023-08-24T08:57:13;7.35;;;4.53;;
6288;SDS011;3177;49.880;8.836;2023-08-24T08:59:41;6.07;;;4.57;;
6288;SDS011;3177;49.880;8.836;2023-08-24T09:02:10;4.35;;;3.95;;
6288;SDS011;3177;49.880;8.836;2023-08-24T09:04:40;6.50;;;4.07;;
6288;SDS011;3177;49.880;8.836;2023-08-24T09:07:07;5.15;;;3.88;;
6288;SDS011;3177;49.880;8.836;2023-08-24T09:09:36;5.90;;;4.25;;
6288;SDS011;3177;49.880;8.836;2023-08-24T09:12:05;4.25;;;3.95;;
6288;SDS011;3177;49.880;8.836;2023-08-24T09:14:32;3.90;;;3.55;;
6288;SDS011;3177;49.880;8.836;2023-08-24T09:17:00;5.55;;;4.57;;
6288;SDS011;3177;49.880;8.836;2023-08-24T09:19:29;5.38;;;4.25;;
6288;SDS011;3177;49.880;8.836;2023-08-24T09:21:56;5.57;;;4.68;;
6288;SDS011;3177;49.880;8.836;2023-08-24T09:24:29;5.57;;;5.05;;
6288;SDS011;3177;49.880;8.836;2023-08-24T09:26:57;5.55;;;4.25;;
6288;SDS011;3177;49.880;8.836;2023-08-24T09:29:24;5.68;;;4.13;;
6288;SDS011;3177;49.880;8.836;2023-08-24T09:31:51;6.22;;;4.72;;
6288;SDS011;3177;49.880;8.836;2023-08-24T09:34:18;4.35;;;3.95;;
6288;SDS011;3177;49.880;8.836;2023-08-24T09:36:47;5.53;;;4.10;;
6288;SDS011;3177;49.880;8.836;2023-08-24T09:39:16;4.25;;;3.85;;
6288;SDS011;3177;49.880;8.836;2023-08-24T09:41:45;5.00;;;4.05;;
6288;SDS011;3177;49.880;8.836;2023-08-24T09:44:12;4.25;;;3.90;;
6288;SDS011;3177;49.880;8.836;2023-08-24T09:46:42;4.18;;;3.83;;
6288;SDS011;3177;49.880;8.836;2023-08-24T09:49:10;4.47;;;4.05;;
6288;SDS011;3177;49.880;8.836;2023-08-24T09:51:38;3.67;;;3.38;;
6288;SDS011;3177;49.880;8.836;2023-08-24T09:54:07;4.47;;;3.85;;
6288;SDS011;3177;49.880;8.836;2023-08-24T09:56:34;3.88;;;3.55;;
6288;SDS011;3177;49.880;8.836;2023-08-24T09:59:04;4.18;;;3.33;;
6288;SDS011;3177;49.880;8.836;2023-08-24T10:01:34;5.03;;;3.30;;
6288;SDS011;3177;49.880;8.836;2023-08-24T10:04:02;3.78;;;3.05;;
6288;SDS011;3177;49.880;8.836;2023-08-24T10:06:32;3.92;;;3.20;;
6288;SDS011;3177;49.880;8.836;2023-08-24T10:09:05;5.97;;;2.92;;
6288;SDS011;3177;49.880;8.836;2023-08-24T10:11:37;3.97;;;2.95;;
6288;SDS011;3177;49.880;8.836;2023-08-24T10:14:08;4.93;;;2.72;;
6288;SDS011;3177;49.880;8.836;2023-08-24T10:16:37;4.53;;;2.60;;
6288;SDS011;3177;49.880;8.836;2023-08-24T10:19:04;3.55;;;2.50;;
6288;SDS011;3177;49.880;8.836;2023-08-24T10:21:31;3.67;;;2.30;;
6288;SDS011;3177;49.880;8.836;2023-08-24T10:23:59;4.05;;;2.35;;
6288;SDS011;3177;49.880;8.836;2023-08-24T10:26:28;2.60;;;2.40;;
6288;SDS011;3177;49.880;8.836;2023-08-24T10:28:57;2.33;;;2.10;;
6288;SDS011;3177;49.880;8.836;2023-08-24T10:31:25;2.72;;;2.10;;
6288;SDS011;3177;49.880;8.836;2023-08-24T10:33:53;5.70;;;2.30;;
6288;SDS011;3177;49.880;8.836;2023-08-24T10:36:20;3.72;;;2.08;;
6288;SDS011;3177;49.880;8.836;2023-08-24T10:38:49;2.78;;;1.88;;
6288;SDS011;3177;49.880;8.836;2023-08-24T10:41:16;3.90;;;2.38;;
6288;SDS011;3177;49.880;8.836;2023-08-24T10:43:48;4.90;;;2.60;;
6288;SDS011;3177;49.880;8.836;2023-08-24T10:46:17;3.00;;;2.33;;
6288;SDS011;3177;49.880;8.836;2023-08-24T10:48:56;3.75;;;2.20;;
6288;SDS011;3177;49.880;8.836;2023-08-24T10:51:25;2.33;;;2.13;;
6288;SDS011;3177;49.880;8.836;2023-08-24T10:53:55;2.28;;;2.08;;
6288;SDS011;3177;49.880;8.836;2023-08-24T10:56:29;4.90;;;2.63;;
6288;SDS011;3177;49.880;8.836;2023-08-24T10:59:09;2.55;;;2.35;;
6288;SDS011;3177;49.880;8.836;2023-08-24T11:01:39;3.05;;;2.20;;
6288;SDS011;3177;49.880;8.836;2023-08-24T11:04:10;2.50;;;2.30;;
6288;SDS011;3177;49.880;8.836;2023-08-24T11:06:50;4.07;;;2.25;;
6288;SDS011;3177;49.880;8.836;2023-08-24T11:09:18;3.00;;;2.42;;
6288;SDS011;3177;49.880;8.836;2023-08-24T11:11:54;3.83;;;2.60;;
6288;SDS011;3177;49.880;8.836;2023-08-24T11:14:22;2.95;;;2.08;;
6288;SDS011;3177;49.880;8.836;2023-08-24T11:16:52;5.38;;;2.53;;
6288;SDS011;3177;49.880;8.836;2023-08-24T11:19:20;3.30;;;2.08;;
6288;SDS011;3177;49.880;8.836;2023-08-24T11:21:47;2.30;;;2.10;;
6288;SDS011;3177;49.880;8.836;2023-08-24T11:24:14;4.80;;;2.53;;
6288;SDS011;3177;49.880;8.836;2023-08-24T11:26:42;4.53;;;2.38;;
6288;SDS011;3177;49.880;8.836;2023-08-24T11:29:10;2.47;;;2.15;;
6288;SDS011;3177;49.880;8.836;2023-08-24T11:31:40;2.60;;;2.40;;
6288;SDS011;3177;49.880;8.836;2023-08-24T11:34:09;2.58;;;2.20;;
6288;SDS011;3177;49.880;8.836;2023-08-24T11:36:43;3.78;;;1.88;;
6288;SDS011;3177;49.880;8.836;2023-08-24T11:39:17;4.25;;;1.92;;
6288;SDS011;3177;49.880;8.836;2023-08-24T11:41:44;4.40;;;2.10;;
6288;SDS011;3177;49.880;8.836;2023-08-24T11:44:13;2.40;;;2.20;;
6288;SDS011;3177;49.880;8.836;2023-08-24T11:46:40;3.03;;;2.10;;
6288;SDS011;3177;49.880;8.836;2023-08-24T11:49:09;2.90;;;1.95;;
6288;SDS011;3177;49.880;8.836;2023-08-24T11:51:36;2.55;;;2.30;;
6288;SDS011;3177;49.880;8.836;2023-08-24T11:54:03;3.22;;;2.20;;
6288;SDS011;3177;49.880;8.836;2023-08-24T11:56:31;2.78;;;2.30;;
6288;SDS011;3177;49.880;8.836;2023-08-24T11:58:58;2.00;;;1.90;;
6288;SDS011;3177;49.880;8.836;2023-08-24T12:01:25;2.40;;;2.15;;
6288;SDS011;3177;49.880;8.836;2023-08-24T12:03:57;3.63;;;2.10;;
6288;SDS011;3177;49.880;8.836;2023-08-24T12:06:26;6.63;;;2.35;;
6288;SDS011;3177;49.880;8.836;2023-08-24T12:08:54;4.57;;;2.20;;
6288;SDS011;3177;49.880;8.836;2023-08-24T12:11:22;2.40;;;2.20;;
6288;SDS011;3177;49.880;8.836;2023-08-24T12:13:51;2.58;;;2.00;;
6288;SDS011;3177;49.880;8.836;2023-08-24T12:16:18;2.40;;;2.20;;
6288;SDS011;3177;49.880;8.836;2023-08-24T12:18:46;4.15;;;2.00;;
6288;SDS011;3177;49.880;8.836;2023-08-24T12:21:14;2.95;;;2.05;;
6288;SDS011;3177;49.880;8.836;2023-08-24T12:23:42;3.13;;;2.17;;
6288;SDS011;3177;49.880;8.836;2023-08-24T12:26:16;4.20;;;1.98;;
6288;SDS011;3177;49.880;8.836;2023-08-24T12:28:48;2.40;;;2.20;;
6288;SDS011;3177;49.880;8.836;2023-08-24T12:31:16;3.55;;;2.30;;
6288;SDS011;3177;49.880;8.836;2023-08-24T12:33:44;2.38;;;2.00;;
6288;SDS011;3177;49.880;8.836;2023-08-24T12:36:11;3.05;;;2.15;;
6288;SDS011;3177;49.880;8.836;2023-08-24T12:38:39;6.05;;;2.72;;
6288;SDS011;3177;49.880;8.836;2023-08-24T12:41:09;3.25;;;2.25;;
6288;SDS011;3177;49.880;8.836;2023-08-24T12:43:38;6.75;;;2.10;;
6288;SDS011;3177;49.880;8.836;2023-08-24T12:46:05;2.45;;;2.25;;
6288;SDS011;3177;49.880;8.836;2023-08-24T12:48:32;1.92;;;1.83;;
6288;SDS011;3177;49.880;8.836;2023-08-24T12:51:03;2.80;;;2.10;;
6288;SDS011;3177;49.880;8.836;2023-08-24T12:53:30;2.55;;;2.22;;
6288;SDS011;3177;49.880;8.836;2023-08-24T12:55:57;3.00;;;2.45;;
6288;SDS011;3177;49.880;8.836;2023-08-24T12:58:26;1.92;;;1.83;;
6288;SDS011;3177;49.880;8.836;2023-08-24T13:00:53;2.92;;;2.28;;
6288;SDS011;3177;49.880;8.836;2023-08-24T13:03:20;4.00;;;2.28;;
6288;SDS011;3177;49.880;8.836;2023-08-24T13:05:48;3.42;;;2.05;;
6288;SDS011;3177;49.880;8.836;2023-08-24T13:08:15;2.33;;;2.13;;
6288;SDS011;3177;49.880;8.836;2023-08-24T13:10:42;2.58;;;2.05;;
6288;SDS011;3177;49.880;8.836;2023-08-24T13:13:09;3.25;;;2.30;;
6288;SDS011;3177;49.880;8.836;2023-08-24T13:15:39;2.75;;;2.20;;
6288;SDS011;3177;49.880;8.836;2023-08-24T13:18:06;3.67;;;2.55;;
6288;SDS011;3177;49.880;8.836;2023-08-24T13:20:33;3.28;;;2.17;;
6288;SDS011;3177;49.880;8.836;2023-08-24T13:23:00;2.25;;;2.03;;
6288;SDS011;3177;49.880;8.836;2023-08-24T13:25:27;4.25;;;2.10;;
6288;SDS011;3177;49.880;8.836;2023-08-24T13:27:54;2.35;;;2.15;;
6288;SDS011;3177;49.880;8.836;2023-08-24T13:30:24;4.20;;;2.30;;
6288;SDS011;3177;49.880;8.836;2023-08-24T13:32:53;5.60;;;2.35;;
6288;SDS011;3177;49.880;8.836;2023-08-24T13:35:20;2.47;;;2.33;;
6288;SDS011;3177;49.880;8.836;2023-08-24T13:37:48;2.20;;;2.00;;
6288;SDS011;3177;49.880;8.836;2023-08-24T13:40:16;4.38;;;2.67;;
6288;SDS011;3177;49.880;8.836;2023-08-24T13:42:44;2.60;;;2.22;;
6288;SDS011;3177;49.880;8.836;2023-08-24T13:45:11;3.42;;;2.25;;
6288;SDS011;3177;49.880;8.836;2023-08-24T13:47:39;2.40;;;2.20;;
6288;SDS011;3177;49.880;8.836;2023-08-24T13:50:08;2.25;;;2.10;;
6288;SDS011;3177;49.880;8.836;2023-08-24T13:52:35;6.93;;;2.30;;
6288;SDS011;3177;49.880;8.836;2023-08-24T13:55:02;2.83;;;2.03;;
6288;SDS011;3177;49.880;8.836;2023-08-24T13:57:30;2.35;;;2.15;;
6288;SDS011;3177;49.880;8.836;2023-08-24T13:59:57;6.18;;;2.10;;
6288;SDS011;3177;49.880;8.836;2023-08-24T14:02:28;4.18;;;2.15;;
6288;SDS011;3177;49.880;8.836;2023-08-24T14:04:55;2.92;;;2.20;;
6288;SDS011;3177;49.880;8.836;2023-08-24T14:07:24;3.53;;;3.10;;
6288;SDS011;3177;49.880;8.836;2023-08-24T14:09:51;4.55;;;2.35;;
6288;SDS011;3177;49.880;8.836;2023-08-24T14:12:18;5.10;;;2.60;;
6288;SDS011;3177;49.880;8.836;2023-08-24T14:14:45;2.88;;;2.58;;
6288;SDS011;3177;49.880;8.836;2023-08-24T14:17:12;4.88;;;2.63;;
6288;SDS011;3177;49.880;8.836;2023-08-24T14:19:39;4.28;;;2.45;;
6288;SDS011;3177;49.880;8.836;2023-08-24T14:22:06;2.63;;;2.42;;
6288;SDS011;3177;49.880;8.836;2023-08-24T14:24:35;3.38;;;2.33;;
6288;SDS011;3177;49.880;8.836;2023-08-24T14:27:02;2.55;;;2.35;;
6288;SDS011;3177;49.880;8.836;2023-08-24T14:29:30;4.57;;;2.25;;
6288;SDS011;3177;49.880;8.836;2023-08-24T14:31:57;6.00;;;2.50;;
6288;SDS011;3177;49.880;8.836;2023-08-24T14:34:24;4.25;;;2.90;;
6288;SDS011;3177;49.880;8.836;2023-08-24T14:36:51;4.93;;;2.60;;
6288;SDS011;3177;49.880;8.836;2023-08-24T14:39:19;2.30;;;2.10;;
6288;SDS011;3177;49.880;8.836;2023-08-24T14:41:47;3.28;;;2.50;;
6288;SDS011;3177;49.880;8.836;2023-08-24T14:44:14;2.40;;;2.20;;
6288;SDS011;3177;49.880;8.836;2023-08-24T14:46:42;5.55;;;2.70;;
6288;SDS011;3177;49.880;8.836;2023-08-24T14:49:09;3.08;;;2.70;;
6288;SDS011;3177;49.880;8.836;2023-08-24T14:51:36;6.28;;;2.88;;
6288;SDS011;3177;49.880;8.836;2023-08-24T14:54:03;3.55;;;2.40;;
6288;SDS011;3177;49.880;8.836;2023-08-24T14:56:32;4.63;;;2.30;;
6288;SDS011;3177;49.880;8.836;2023-08-24T14:59:00;3.53;;;2.30;;
6288;SDS011;3177;49.880;8.836;2023-08-24T15:01:30;4.97;;;2.80;;
6288;SDS011;3177;49.880;8.836;2023-08-24T15:03:58;4.45;;;2.58;;
6288;SDS011;3177;49.880;8.836;2023-08-24T15:06:25;4.30;;;2.47;;
6288;SDS011;3177;49.880;8.836;2023-08-24T15:08:52;6.78;;;3.10;;
6288;SDS011;3177;49.880;8.836;2023-08-24T15:11:19;3.90;;;2.70;;
6288;SDS011;3177;49.880;8.836;2023-08-24T15:13:46;2.78;;;2.38;;
6288;SDS011;3177;49.880;8.836;2023-08-24T15:16:15;4.45;;;2.78;;
6288;SDS011;3177;49.880;8.836;2023-08-24T15:18:45;3.53;;;3.00;;
6288;SDS011;3177;49.880;8.836;2023-08-24T15:21:14;6.72;;;2.75;;
6288;SDS011;3177;49.880;8.836;2023-08-24T15:23:42;3.08;;;2.78;;
6288;SDS011;3177;49.880;8.836;2023-08-24T15:26:09;4.80;;;2.88;;
6288;SDS011;3177;49.880;8.836;2023-08-24T15:28:36;7.22;;;3.10;;
6288;SDS011;3177;49.880;8.836;2023-08-24T15:31:04;3.90;;;3.10;;
6288;SDS011;3177;49.880;8.836;2023-08-24T15:33:32;6.47;;;3.28;;